sensor_id;sensor_type;location;lat;lon;timestamp;pressure;altitude;pressure_sealevel;temperature;humidity
81379;BME280;70830;42.290;-71.354;2023-08-01T00:02:11;100896.88;;;21.04;68.92
81379;BME280;70830;42.290;-71.354;2023-08-01T00:04:37;100891.00;;;20.99;68.66
81379;BME280;70830;42.290;-71.354;2023-08-01T00:07:03;100883.84;;;20.88;69.73
81379;BME280;70830;42.290;-71.354;2023-08-01T00:09:29;100892.47;;;20.92;70.68
81379;BME280;70830;42.290;-71.354;2023-08-01T00:11:55;100894.78;;;20.85;70.80
81379;BME280;70830;42.290;-71.354;2023-08-01T00:14:21;100896.16;;;20.80;70.70
81379;BME280;70830;42.290;-71.354;2023-08-01T00:16:50;100906.38;;;20.75;71.33
81379;BME280;70830;42.290;-71.354;2023-08-01T00:19:17;100891.75;;;20.68;71.72
81379;BME280;70830;42.290;-71.354;2023-08-01T00:21:42;100914.91;;;20.69;72.09
81379;BME280;70830;42.290;-71.354;2023-08-01T00:24:08;100920.38;;;20.67;72.12
81379;BME280;70830;42.290;-71.354;2023-08-01T00:26:34;100916.38;;;20.62;72.78
81379;BME280;70830;42.290;-71.354;2023-08-01T00:29:01;100918.19;;;20.61;72.65
81379;BME280;70830;42.290;-71.354;2023-08-01T00:31:27;100920.50;;;20.55;72.65
81379;BME280;70830;42.290;-71.354;2023-08-01T00:33:53;100921.72;;;20.51;72.22
81379;BME280;70830;42.290;-71.354;2023-08-01T00:36:18;100929.25;;;20.45;72.64
81379;BME280;70830;42.290;-71.354;2023-08-01T00:38:44;100926.19;;;20.39;72.77
81379;BME280;70830;42.290;-71.354;2023-08-01T00:41:10;100933.50;;;20.37;73.25
81379;BME280;70830;42.290;-71.354;2023-08-01T00:43:38;100944.22;;;20.37;72.69
81379;BME280;70830;42.290;-71.354;2023-08-01T00:46:06;100947.97;;;20.34;72.82
81379;BME280;70830;42.290;-71.354;2023-08-01T00:48:32;100953.69;;;20.30;73.33
81379;BME280;70830;42.290;-71.354;2023-08-01T00:51:01;100953.19;;;20.25;73.70
81379;BME280;70830;42.290;-71.354;2023-08-01T00:53:30;100952.91;;;20.17;73.69
81379;BME280;70830;42.290;-71.354;2023-08-01T00:56:00;100962.75;;;20.16;73.67
81379;BME280;70830;42.290;-71.354;2023-08-01T00:58:26;100968.59;;;20.10;73.09
81379;BME280;70830;42.290;-71.354;2023-08-01T01:00:52;100979.41;;;20.09;73.25
81379;BME280;70830;42.290;-71.354;2023-08-01T01:03:18;100970.00;;;20.03;73.81
81379;BME280;70830;42.290;-71.354;2023-08-01T01:05:53;100986.19;;;20.02;73.88
81379;BME280;70830;42.290;-71.354;2023-08-01T01:08:22;100986.41;;;19.99;74.21
81379;BME280;70830;42.290;-71.354;2023-08-01T01:10:48;100988.34;;;19.97;74.23
81379;BME280;70830;42.290;-71.354;2023-08-01T01:13:14;100988.69;;;19.92;74.28
81379;BME280;70830;42.290;-71.354;2023-08-01T01:15:40;101003.03;;;19.91;74.43
81379;BME280;70830;42.290;-71.354;2023-08-01T01:18:06;100995.34;;;19.87;73.99
81379;BME280;70830;42.290;-71.354;2023-08-01T01:20:35;101006.81;;;19.89;74.63
81379;BME280;70830;42.290;-71.354;2023-08-01T01:23:06;101007.66;;;19.89;74.74
81379;BME280;70830;42.290;-71.354;2023-08-01T01:25:36;101011.84;;;19.93;74.57
81379;BME280;70830;42.290;-71.354;2023-08-01T01:28:04;101012.56;;;19.95;74.86
81379;BME280;70830;42.290;-71.354;2023-08-01T01:30:32;101012.09;;;20.01;74.28
81379;BME280;70830;42.290;-71.354;2023-08-01T01:33:01;101020.88;;;20.03;74.83
81379;BME280;70830;42.290;-71.354;2023-08-01T01:35:33;101030.38;;;20.07;74.73
81379;BME280;70830;42.290;-71.354;2023-08-01T01:37:59;101030.50;;;20.06;76.06
81379;BME280;70830;42.290;-71.354;2023-08-01T01:40:32;101033.53;;;20.01;74.49
81379;BME280;70830;42.290;-71.354;2023-08-01T01:42:59;101025.50;;;20.01;74.99
81379;BME280;70830;42.290;-71.354;2023-08-01T01:45:25;101026.44;;;20.00;74.71
81379;BME280;70830;42.290;-71.354;2023-08-01T01:47:52;101028.16;;;20.01;74.59
81379;BME280;70830;42.290;-71.354;2023-08-01T01:50:18;101035.47;;;19.99;75.00
81379;BME280;70830;42.290;-71.354;2023-08-01T01:52:45;101039.63;;;20.03;75.35
81379;BME280;70830;42.290;-71.354;2023-08-01T01:55:11;101045.81;;;20.04;75.01
81379;BME280;70830;42.290;-71.354;2023-08-01T01:57:37;101045.56;;;20.07;74.46
81379;BME280;70830;42.290;-71.354;2023-08-01T02:00:06;101050.84;;;20.08;75.48
81379;BME280;70830;42.290;-71.354;2023-08-01T02:02:38;101045.69;;;20.05;75.21
81379;BME280;70830;42.290;-71.354;2023-08-01T02:05:04;101055.53;;;20.05;75.55
81379;BME280;70830;42.290;-71.354;2023-08-01T02:07:30;101058.88;;;20.08;75.89
81379;BME280;70830;42.290;-71.354;2023-08-01T02:09:57;101064.31;;;20.07;75.43
81379;BME280;70830;42.290;-71.354;2023-08-01T02:12:23;101069.34;;;20.11;75.23
81379;BME280;70830;42.290;-71.354;2023-08-01T02:14:49;101064.38;;;20.18;75.89
81379;BME280;70830;42.290;-71.354;2023-08-01T02:17:16;101062.38;;;20.21;74.81
81379;BME280;70830;42.290;-71.354;2023-08-01T02:19:42;101069.19;;;20.25;74.72
81379;BME280;70830;42.290;-71.354;2023-08-01T02:22:14;101061.91;;;20.27;74.64
81379;BME280;70830;42.290;-71.354;2023-08-01T02:24:40;101066.19;;;20.30;74.25
81379;BME280;70830;42.290;-71.354;2023-08-01T02:27:06;101074.09;;;20.31;74.27
81379;BME280;70830;42.290;-71.354;2023-08-01T02:29:32;101071.31;;;20.33;74.31
81379;BME280;70830;42.290;-71.354;2023-08-01T02:31:58;101065.97;;;20.33;74.48
81379;BME280;70830;42.290;-71.354;2023-08-01T02:34:24;101070.44;;;20.32;73.79
81379;BME280;70830;42.290;-71.354;2023-08-01T02:36:50;101068.72;;;20.31;73.72
81379;BME280;70830;42.290;-71.354;2023-08-01T02:39:16;101068.97;;;20.28;73.19
81379;BME280;70830;42.290;-71.354;2023-08-01T02:41:42;101065.56;;;20.26;72.73
81379;BME280;70830;42.290;-71.354;2023-08-01T02:44:08;101071.66;;;20.28;71.49
81379;BME280;70830;42.290;-71.354;2023-08-01T02:46:34;101071.75;;;20.27;71.45
81379;BME280;70830;42.290;-71.354;2023-08-01T02:49:00;101086.13;;;20.26;70.66
81379;BME280;70830;42.290;-71.354;2023-08-01T02:51:28;101075.63;;;20.23;69.55
81379;BME280;70830;42.290;-71.354;2023-08-01T02:53:54;101075.75;;;20.21;69.01
81379;BME280;70830;42.290;-71.354;2023-08-01T02:56:20;101060.22;;;20.14;68.56
81379;BME280;70830;42.290;-71.354;2023-08-01T02:58:46;101070.84;;;20.15;66.83
81379;BME280;70830;42.290;-71.354;2023-08-01T03:01:12;101068.38;;;20.12;66.85
81379;BME280;70830;42.290;-71.354;2023-08-01T03:03:39;101067.63;;;20.10;67.35
81379;BME280;70830;42.290;-71.354;2023-08-01T03:06:05;101080.03;;;20.11;66.69
81379;BME280;70830;42.290;-71.354;2023-08-01T03:08:33;101079.31;;;20.09;67.02
81379;BME280;70830;42.290;-71.354;2023-08-01T03:10:59;101069.66;;;20.07;67.26
81379;BME280;70830;42.290;-71.354;2023-08-01T03:13:26;101066.03;;;20.08;66.88
81379;BME280;70830;42.290;-71.354;2023-08-01T03:15:52;101078.56;;;20.07;66.21
81379;BME280;70830;42.290;-71.354;2023-08-01T03:18:21;101077.69;;;20.07;66.49
81379;BME280;70830;42.290;-71.354;2023-08-01T03:20:47;101066.16;;;20.06;66.17
81379;BME280;70830;42.290;-71.354;2023-08-01T03:23:13;101078.91;;;20.03;65.24
81379;BME280;70830;42.290;-71.354;2023-08-01T03:25:40;101085.13;;;20.03;66.25
81379;BME280;70830;42.290;-71.354;2023-08-01T03:28:07;101089.59;;;20.03;66.07
81379;BME280;70830;42.290;-71.354;2023-08-01T03:30:33;101088.75;;;20.02;65.92
81379;BME280;70830;42.290;-71.354;2023-08-01T03:33:00;101081.91;;;19.98;65.94
81379;BME280;70830;42.290;-71.354;2023-08-01T03:35:28;101086.31;;;19.99;66.20
81379;BME280;70830;42.290;-71.354;2023-08-01T03:37:54;101090.06;;;19.97;66.40
81379;BME280;70830;42.290;-71.354;2023-08-01T03:40:20;101096.72;;;19.91;66.27
81379;BME280;70830;42.290;-71.354;2023-08-01T03:42:46;101101.31;;;19.89;66.21
81379;BME280;70830;42.290;-71.354;2023-08-01T03:45:12;101102.53;;;19.85;66.40
81379;BME280;70830;42.290;-71.354;2023-08-01T03:47:38;101096.31;;;19.85;67.50
81379;BME280;70830;42.290;-71.354;2023-08-01T03:50:04;101089.72;;;19.78;67.27
81379;BME280;70830;42.290;-71.354;2023-08-01T03:52:30;101095.06;;;19.78;67.36
81379;BME280;70830;42.290;-71.354;2023-08-01T03:54:56;101099.66;;;19.75;67.13
81379;BME280;70830;42.290;-71.354;2023-08-01T03:57:22;101107.81;;;19.74;66.36
81379;BME280;70830;42.290;-71.354;2023-08-01T03:59:48;101108.03;;;19.71;66.45
81379;BME280;70830;42.290;-71.354;2023-08-01T04:02:14;101111.66;;;19.70;66.65
81379;BME280;70830;42.290;-71.354;2023-08-01T04:04:40;101109.94;;;19.69;67.24
81379;BME280;70830;42.290;-71.354;2023-08-01T04:07:06;101103.22;;;19.63;67.53
81379;BME280;70830;42.290;-71.354;2023-08-01T04:09:32;101111.38;;;19.62;67.10
81379;BME280;70830;42.290;-71.354;2023-08-01T04:11:57;101108.03;;;19.58;66.90
81379;BME280;70830;42.290;-71.354;2023-08-01T04:14:23;101105.81;;;19.52;66.57
81379;BME280;70830;42.290;-71.354;2023-08-01T04:16:49;101106.16;;;19.48;66.81
81379;BME280;70830;42.290;-71.354;2023-08-01T04:19:15;101112.69;;;19.44;66.75
81379;BME280;70830;42.290;-71.354;2023-08-01T04:21:42;101120.91;;;19.41;66.17
81379;BME280;70830;42.290;-71.354;2023-08-01T04:24:09;101112.25;;;19.37;67.19
81379;BME280;70830;42.290;-71.354;2023-08-01T04:26:34;101116.63;;;19.38;66.47
81379;BME280;70830;42.290;-71.354;2023-08-01T04:29:02;101114.19;;;19.35;66.67
81379;BME280;70830;42.290;-71.354;2023-08-01T04:31:28;101115.03;;;19.36;66.67
81379;BME280;70830;42.290;-71.354;2023-08-01T04:33:54;101111.56;;;19.34;66.73
81379;BME280;70830;42.290;-71.354;2023-08-01T04:36:20;101114.69;;;19.28;66.75
81379;BME280;70830;42.290;-71.354;2023-08-01T04:38:45;101132.91;;;19.35;67.57
81379;BME280;70830;42.290;-71.354;2023-08-01T04:41:11;101133.19;;;19.31;67.38
81379;BME280;70830;42.290;-71.354;2023-08-01T04:43:37;101132.34;;;19.30;67.93
81379;BME280;70830;42.290;-71.354;2023-08-01T04:46:03;101126.88;;;19.32;67.05
81379;BME280;70830;42.290;-71.354;2023-08-01T04:48:29;101129.38;;;19.35;66.50
81379;BME280;70830;42.290;-71.354;2023-08-01T04:50:55;101132.03;;;19.35;66.88
81379;BME280;70830;42.290;-71.354;2023-08-01T04:53:21;101128.47;;;19.34;66.60
81379;BME280;70830;42.290;-71.354;2023-08-01T04:55:47;101125.63;;;19.37;67.36
81379;BME280;70830;42.290;-71.354;2023-08-01T04:58:12;101130.13;;;19.37;66.44
81379;BME280;70830;42.290;-71.354;2023-08-01T05:00:40;101130.13;;;19.37;67.12
81379;BME280;70830;42.290;-71.354;2023-08-01T05:03:07;101125.91;;;19.33;66.28
81379;BME280;70830;42.290;-71.354;2023-08-01T05:05:32;101124.03;;;19.35;66.44
81379;BME280;70830;42.290;-71.354;2023-08-01T05:08:02;101119.84;;;19.31;66.72
81379;BME280;70830;42.290;-71.354;2023-08-01T05:10:27;101120.22;;;19.25;66.59
81379;BME280;70830;42.290;-71.354;2023-08-01T05:12:53;101126.75;;;19.21;67.16
81379;BME280;70830;42.290;-71.354;2023-08-01T05:15:19;101127.09;;;19.16;66.59
81379;BME280;70830;42.290;-71.354;2023-08-01T05:17:46;101125.72;;;19.11;66.72
81379;BME280;70830;42.290;-71.354;2023-08-01T05:20:12;101115.34;;;19.06;66.37
81379;BME280;70830;42.290;-71.354;2023-08-01T05:22:38;101115.41;;;19.04;67.09
81379;BME280;70830;42.290;-71.354;2023-08-01T05:25:04;101120.00;;;19.02;67.21
81379;BME280;70830;42.290;-71.354;2023-08-01T05:27:30;101117.56;;;18.99;67.39
81379;BME280;70830;42.290;-71.354;2023-08-01T05:29:56;101123.13;;;18.96;67.33
81379;BME280;70830;42.290;-71.354;2023-08-01T05:32:22;101117.97;;;18.93;67.93
81379;BME280;70830;42.290;-71.354;2023-08-01T05:34:48;101127.91;;;18.91;67.94
81379;BME280;70830;42.290;-71.354;2023-08-01T05:37:14;101117.66;;;18.85;67.51
81379;BME280;70830;42.290;-71.354;2023-08-01T05:39:40;101116.16;;;18.81;68.44
81379;BME280;70830;42.290;-71.354;2023-08-01T05:42:06;101129.09;;;18.75;68.38
81379;BME280;70830;42.290;-71.354;2023-08-01T05:44:35;101121.38;;;18.70;67.76
81379;BME280;70830;42.290;-71.354;2023-08-01T05:47:01;101112.19;;;18.62;68.18
81379;BME280;70830;42.290;-71.354;2023-08-01T05:49:26;101124.97;;;18.57;68.27
81379;BME280;70830;42.290;-71.354;2023-08-01T05:51:55;101115.53;;;18.51;69.11
81379;BME280;70830;42.290;-71.354;2023-08-01T05:54:21;101112.50;;;18.43;69.07
81379;BME280;70830;42.290;-71.354;2023-08-01T05:56:47;101111.88;;;18.40;69.15
81379;BME280;70830;42.290;-71.354;2023-08-01T05:59:13;101118.34;;;18.36;69.54
81379;BME280;70830;42.290;-71.354;2023-08-01T06:01:39;101112.47;;;18.30;69.53
81379;BME280;70830;42.290;-71.354;2023-08-01T06:04:05;101112.97;;;18.23;69.01
81379;BME280;70830;42.290;-71.354;2023-08-01T06:06:30;101109.97;;;18.15;69.47
81379;BME280;70830;42.290;-71.354;2023-08-01T06:08:56;101106.91;;;18.07;69.93
81379;BME280;70830;42.290;-71.354;2023-08-01T06:11:22;101107.22;;;18.02;70.03
81379;BME280;70830;42.290;-71.354;2023-08-01T06:13:48;101106.47;;;18.00;70.51
81379;BME280;70830;42.290;-71.354;2023-08-01T06:16:14;101104.94;;;17.96;70.02
81379;BME280;70830;42.290;-71.354;2023-08-01T06:18:40;101110.19;;;17.98;69.85
81379;BME280;70830;42.290;-71.354;2023-08-01T06:21:06;101108.59;;;17.95;70.13
81379;BME280;70830;42.290;-71.354;2023-08-01T06:23:33;101099.81;;;17.93;69.80
81379;BME280;70830;42.290;-71.354;2023-08-01T06:25:59;101104.38;;;17.91;70.25
81379;BME280;70830;42.290;-71.354;2023-08-01T06:28:25;101101.94;;;17.88;70.08
81379;BME280;70830;42.290;-71.354;2023-08-01T06:30:51;101107.56;;;17.84;70.81
81379;BME280;70830;42.290;-71.354;2023-08-01T06:33:17;101113.84;;;17.83;70.76
81379;BME280;70830;42.290;-71.354;2023-08-01T06:35:42;101110.41;;;17.81;70.33
81379;BME280;70830;42.290;-71.354;2023-08-01T06:38:08;101112.34;;;17.79;70.77
81379;BME280;70830;42.290;-71.354;2023-08-01T06:40:34;101119.56;;;17.77;70.92
81379;BME280;70830;42.290;-71.354;2023-08-01T06:43:00;101113.59;;;17.73;70.65
81379;BME280;70830;42.290;-71.354;2023-08-01T06:45:26;101105.78;;;17.70;70.80
81379;BME280;70830;42.290;-71.354;2023-08-01T06:47:52;101116.44;;;17.70;70.39
81379;BME280;70830;42.290;-71.354;2023-08-01T06:50:18;101119.22;;;17.69;70.74
81379;BME280;70830;42.290;-71.354;2023-08-01T06:52:44;101126.44;;;17.67;70.43
81379;BME280;70830;42.290;-71.354;2023-08-01T06:55:10;101127.50;;;17.64;71.26
81379;BME280;70830;42.290;-71.354;2023-08-01T06:57:36;101129.41;;;17.62;70.94
81379;BME280;70830;42.290;-71.354;2023-08-01T07:00:02;101124.28;;;17.59;70.74
81379;BME280;70830;42.290;-71.354;2023-08-01T07:02:28;101127.13;;;17.56;71.44
81379;BME280;70830;42.290;-71.354;2023-08-01T07:04:54;101132.72;;;17.51;70.82
81379;BME280;70830;42.290;-71.354;2023-08-01T07:07:20;101127.47;;;17.50;71.01
81379;BME280;70830;42.290;-71.354;2023-08-01T07:09:46;101124.06;;;17.48;71.41
81379;BME280;70830;42.290;-71.354;2023-08-01T07:12:12;101129.50;;;17.46;70.76
81379;BME280;70830;42.290;-71.354;2023-08-01T07:14:38;101138.59;;;17.42;71.04
81379;BME280;70830;42.290;-71.354;2023-08-01T07:17:04;101141.28;;;17.42;70.72
81379;BME280;70830;42.290;-71.354;2023-08-01T07:19:30;101132.78;;;17.36;70.61
81379;BME280;70830;42.290;-71.354;2023-08-01T07:21:56;101139.16;;;17.33;71.24
81379;BME280;70830;42.290;-71.354;2023-08-01T07:24:22;101138.41;;;17.31;70.42
81379;BME280;70830;42.290;-71.354;2023-08-01T07:26:48;101126.44;;;17.24;71.16
81379;BME280;70830;42.290;-71.354;2023-08-01T07:29:14;101132.72;;;17.23;71.49
81379;BME280;70830;42.290;-71.354;2023-08-01T07:31:41;101142.50;;;17.23;71.48
81379;BME280;70830;42.290;-71.354;2023-08-01T07:34:08;101139.06;;;17.21;71.26
81379;BME280;70830;42.290;-71.354;2023-08-01T07:36:34;101143.66;;;17.19;71.62
81379;BME280;70830;42.290;-71.354;2023-08-01T07:39:00;101140.31;;;17.15;71.46
81379;BME280;70830;42.290;-71.354;2023-08-01T07:41:26;101150.22;;;17.13;71.73
81379;BME280;70830;42.290;-71.354;2023-08-01T07:43:52;101140.88;;;17.06;71.27
81379;BME280;70830;42.290;-71.354;2023-08-01T07:46:18;101143.81;;;17.02;72.02
81379;BME280;70830;42.290;-71.354;2023-08-01T07:48:44;101146.00;;;16.95;72.30
81379;BME280;70830;42.290;-71.354;2023-08-01T07:51:10;101146.28;;;16.91;71.74
81379;BME280;70830;42.290;-71.354;2023-08-01T07:53:37;101146.44;;;16.88;71.89
81379;BME280;70830;42.290;-71.354;2023-08-01T07:56:03;101159.16;;;16.82;72.33
81379;BME280;70830;42.290;-71.354;2023-08-01T07:58:32;101154.88;;;16.80;72.00
81379;BME280;70830;42.290;-71.354;2023-08-01T08:01:03;101164.75;;;16.78;72.62
81379;BME280;70830;42.290;-71.354;2023-08-01T08:03:29;101163.16;;;16.75;71.99
81379;BME280;70830;42.290;-71.354;2023-08-01T08:05:54;101159.91;;;16.70;72.75
81379;BME280;70830;42.290;-71.354;2023-08-01T08:08:20;101167.78;;;16.72;72.50
81379;BME280;70830;42.290;-71.354;2023-08-01T08:10:46;101166.09;;;16.71;73.36
81379;BME280;70830;42.290;-71.354;2023-08-01T08:13:12;101155.72;;;16.66;72.45
81379;BME280;70830;42.290;-71.354;2023-08-01T08:15:38;101166.94;;;16.71;72.83
81379;BME280;70830;42.290;-71.354;2023-08-01T08:18:05;101172.94;;;16.75;72.43
81379;BME280;70830;42.290;-71.354;2023-08-01T08:20:41;101179.16;;;16.75;72.73
81379;BME280;70830;42.290;-71.354;2023-08-01T08:23:08;101180.06;;;16.74;72.89
81379;BME280;70830;42.290;-71.354;2023-08-01T08:25:33;101181.72;;;16.77;72.99
81379;BME280;70830;42.290;-71.354;2023-08-01T08:27:59;101185.31;;;16.76;72.28
81379;BME280;70830;42.290;-71.354;2023-08-01T08:30:25;101189.59;;;16.78;72.44
81379;BME280;70830;42.290;-71.354;2023-08-01T08:32:51;101186.84;;;16.80;72.42
81379;BME280;70830;42.290;-71.354;2023-08-01T08:35:17;101203.50;;;16.83;72.01
81379;BME280;70830;42.290;-71.354;2023-08-01T08:37:43;101204.44;;;16.82;71.79
81379;BME280;70830;42.290;-71.354;2023-08-01T08:40:09;101206.28;;;16.82;71.82
81379;BME280;70830;42.290;-71.354;2023-08-01T08:42:35;101212.63;;;16.79;72.54
81379;BME280;70830;42.290;-71.354;2023-08-01T08:45:02;101201.13;;;16.79;72.69
81379;BME280;70830;42.290;-71.354;2023-08-01T08:47:30;101207.38;;;16.78;72.65
81379;BME280;70830;42.290;-71.354;2023-08-01T08:49:58;101209.28;;;16.76;72.45
81379;BME280;70830;42.290;-71.354;2023-08-01T08:52:25;101214.59;;;16.76;72.25
81379;BME280;70830;42.290;-71.354;2023-08-01T08:54:52;101216.59;;;16.72;72.81
81379;BME280;70830;42.290;-71.354;2023-08-01T08:57:19;101217.63;;;16.70;72.14
81379;BME280;70830;42.290;-71.354;2023-08-01T08:59:47;101209.81;;;16.67;72.45
81379;BME280;70830;42.290;-71.354;2023-08-01T09:02:15;101212.66;;;16.64;72.38
81379;BME280;70830;42.290;-71.354;2023-08-01T09:04:41;101216.47;;;16.60;72.51
81379;BME280;70830;42.290;-71.354;2023-08-01T09:07:09;101208.03;;;16.52;72.95
81379;BME280;70830;42.290;-71.354;2023-08-01T09:09:37;101225.00;;;16.49;72.57
81379;BME280;70830;42.290;-71.354;2023-08-01T09:12:03;101227.75;;;16.48;72.82
81379;BME280;70830;42.290;-71.354;2023-08-01T09:14:29;101232.31;;;16.46;72.87
81379;BME280;70830;42.290;-71.354;2023-08-01T09:17:06;101233.59;;;16.39;72.46
81379;BME280;70830;42.290;-71.354;2023-08-01T09:19:33;101234.53;;;16.38;72.64
81379;BME280;70830;42.290;-71.354;2023-08-01T09:21:59;101246.22;;;16.35;72.08
81379;BME280;70830;42.290;-71.354;2023-08-01T09:24:25;101241.94;;;16.33;72.13
81379;BME280;70830;42.290;-71.354;2023-08-01T09:26:51;101249.97;;;16.31;71.98
81379;BME280;70830;42.290;-71.354;2023-08-01T09:29:18;101246.66;;;16.28;71.97
81379;BME280;70830;42.290;-71.354;2023-08-01T09:31:44;101258.16;;;16.28;71.92
81379;BME280;70830;42.290;-71.354;2023-08-01T09:34:22;101260.09;;;16.25;72.89
81379;BME280;70830;42.290;-71.354;2023-08-01T09:36:48;101253.19;;;16.22;71.91
81379;BME280;70830;42.290;-71.354;2023-08-01T09:39:20;101261.22;;;16.21;72.02
81379;BME280;70830;42.290;-71.354;2023-08-01T09:41:56;101266.72;;;16.18;72.18
81379;BME280;70830;42.290;-71.354;2023-08-01T09:44:22;101268.59;;;16.15;72.10
81379;BME280;70830;42.290;-71.354;2023-08-01T09:46:59;101266.22;;;16.11;71.86
81379;BME280;70830;42.290;-71.354;2023-08-01T09:49:27;101271.44;;;16.12;72.23
81379;BME280;70830;42.290;-71.354;2023-08-01T09:51:53;101276.84;;;16.11;72.86
81379;BME280;70830;42.290;-71.354;2023-08-01T09:54:20;101286.69;;;16.09;72.74
81379;BME280;70830;42.290;-71.354;2023-08-01T09:56:48;101285.25;;;16.03;72.50
81379;BME280;70830;42.290;-71.354;2023-08-01T09:59:25;101295.00;;;16.03;73.55
81379;BME280;70830;42.290;-71.354;2023-08-01T10:01:53;101301.34;;;16.00;72.81
81379;BME280;70830;42.290;-71.354;2023-08-01T10:04:22;101303.16;;;16.00;72.86
81379;BME280;70830;42.290;-71.354;2023-08-01T10:06:54;101301.53;;;15.97;72.61
81379;BME280;70830;42.290;-71.354;2023-08-01T10:09:21;101316.44;;;16.00;73.17
81379;BME280;70830;42.290;-71.354;2023-08-01T10:11:48;101309.56;;;15.96;73.34
81379;BME280;70830;42.290;-71.354;2023-08-01T10:14:16;101318.19;;;16.01;73.34
81379;BME280;70830;42.290;-71.354;2023-08-01T10:16:42;101319.56;;;16.08;73.85
81379;BME280;70830;42.290;-71.354;2023-08-01T10:19:09;101322.66;;;16.16;72.95
81379;BME280;70830;42.290;-71.354;2023-08-01T10:21:37;101322.41;;;16.21;73.69
81379;BME280;70830;42.290;-71.354;2023-08-01T10:24:05;101324.94;;;16.24;72.90
81379;BME280;70830;42.290;-71.354;2023-08-01T10:26:32;101326.63;;;16.25;72.89
81379;BME280;70830;42.290;-71.354;2023-08-01T10:28:58;101325.44;;;16.30;73.77
81379;BME280;70830;42.290;-71.354;2023-08-01T10:31:25;101331.66;;;16.31;73.17
81379;BME280;70830;42.290;-71.354;2023-08-01T10:33:51;101340.16;;;16.37;72.66
81379;BME280;70830;42.290;-71.354;2023-08-01T10:36:20;101340.06;;;16.39;73.34
81379;BME280;70830;42.290;-71.354;2023-08-01T10:41:33;101339.34;;;16.52;72.73
81379;BME280;70830;42.290;-71.354;2023-08-01T10:46:50;101352.75;;;16.66;72.75
81379;BME280;70830;42.290;-71.354;2023-08-01T10:49:18;101351.38;;;16.75;72.12
81379;BME280;70830;42.290;-71.354;2023-08-01T10:51:45;101356.19;;;16.84;71.84
81379;BME280;70830;42.290;-71.354;2023-08-01T10:54:22;101359.19;;;16.94;71.31
81379;BME280;70830;42.290;-71.354;2023-08-01T10:56:50;101362.97;;;17.05;71.49
81379;BME280;70830;42.290;-71.354;2023-08-01T10:59:16;101356.25;;;17.14;70.54
81379;BME280;70830;42.290;-71.354;2023-08-01T11:01:58;101364.41;;;17.26;70.11
81379;BME280;70830;42.290;-71.354;2023-08-01T11:04:25;101367.31;;;17.37;69.12
81379;BME280;70830;42.290;-71.354;2023-08-01T11:06:53;101370.09;;;17.66;69.05
81379;BME280;70830;42.290;-71.354;2023-08-01T11:09:24;101376.09;;;18.13;67.50
81379;BME280;70830;42.290;-71.354;2023-08-01T11:11:55;101372.97;;;18.77;66.38
81379;BME280;70830;42.290;-71.354;2023-08-01T11:14:23;101358.94;;;19.41;64.14
81379;BME280;70830;42.290;-71.354;2023-08-01T11:16:50;101371.25;;;20.08;61.77
81379;BME280;70830;42.290;-71.354;2023-08-01T11:19:20;101371.91;;;20.62;60.10
81379;BME280;70830;42.290;-71.354;2023-08-01T11:21:47;101366.88;;;21.06;56.81
81379;BME280;70830;42.290;-71.354;2023-08-01T11:24:13;101376.53;;;21.32;56.40
81379;BME280;70830;42.290;-71.354;2023-08-01T11:26:43;101367.66;;;21.66;55.57
81379;BME280;70830;42.290;-71.354;2023-08-01T11:29:10;101375.81;;;22.00;54.43
81379;BME280;70830;42.290;-71.354;2023-08-01T11:31:37;101375.38;;;22.28;53.65
81379;BME280;70830;42.290;-71.354;2023-08-01T11:34:03;101372.94;;;22.58;52.95
81379;BME280;70830;42.290;-71.354;2023-08-01T11:36:29;101376.00;;;22.76;52.06
81379;BME280;70830;42.290;-71.354;2023-08-01T11:38:57;101386.63;;;22.88;50.83
81379;BME280;70830;42.290;-71.354;2023-08-01T11:41:25;101375.22;;;23.07;50.33
81379;BME280;70830;42.290;-71.354;2023-08-01T11:43:52;101382.78;;;23.24;49.77
81379;BME280;70830;42.290;-71.354;2023-08-01T11:46:21;101388.50;;;23.42;48.78
81379;BME280;70830;42.290;-71.354;2023-08-01T11:48:48;101386.28;;;23.67;47.66
81379;BME280;70830;42.290;-71.354;2023-08-01T11:51:16;101395.25;;;23.88;46.47
81379;BME280;70830;42.290;-71.354;2023-08-01T11:53:42;101399.34;;;24.03;46.21
81379;BME280;70830;42.290;-71.354;2023-08-01T11:56:08;101395.72;;;24.14;45.36
81379;BME280;70830;42.290;-71.354;2023-08-01T11:58:41;101402.06;;;24.24;44.95
81379;BME280;70830;42.290;-71.354;2023-08-01T12:01:13;101402.56;;;24.39;44.08
81379;BME280;70830;42.290;-71.354;2023-08-01T12:06:13;101400.72;;;24.39;42.88
81379;BME280;70830;42.290;-71.354;2023-08-01T12:08:42;101402.41;;;24.40;42.75
81379;BME280;70830;42.290;-71.354;2023-08-01T12:13:44;101399.81;;;24.59;42.15
81379;BME280;70830;42.290;-71.354;2023-08-01T12:16:10;101403.41;;;24.69;41.74
81379;BME280;70830;42.290;-71.354;2023-08-01T12:18:39;101398.66;;;24.83;42.35
81379;BME280;70830;42.290;-71.354;2023-08-01T12:21:05;101396.44;;;25.07;41.57
81379;BME280;70830;42.290;-71.354;2023-08-01T12:23:31;101404.19;;;25.30;41.30
81379;BME280;70830;42.290;-71.354;2023-08-01T12:25:57;101405.38;;;25.57;40.95
81379;BME280;70830;42.290;-71.354;2023-08-01T12:28:23;101398.53;;;25.81;40.24
81379;BME280;70830;42.290;-71.354;2023-08-01T12:30:49;101399.41;;;25.82;40.11
81379;BME280;70830;42.290;-71.354;2023-08-01T12:33:16;101401.97;;;25.83;40.03
81379;BME280;70830;42.290;-71.354;2023-08-01T12:35:42;101406.22;;;25.95;39.67
81379;BME280;70830;42.290;-71.354;2023-08-01T12:38:09;101400.66;;;25.87;39.73
81379;BME280;70830;42.290;-71.354;2023-08-01T12:40:35;101400.94;;;25.94;40.23